sensor_id;sensor_type;location;lat;lon;timestamp;pressure;altitude;pressure_sealevel;temperature;humidity
10310;BME280;5200;43.236;27.986;2023-08-24T00:01:16;99970.72;;;23.60;88.72
10310;BME280;5200;43.236;27.986;2023-08-24T00:03:44;99976.53;;;23.57;89.25
10310;BME280;5200;43.236;27.986;2023-08-24T00:06:14;99997.00;;;23.77;88.86
10310;BME280;5200;43.236;27.986;2023-08-24T00:08:42;99940.88;;;23.32;89.31
10310;BME280;5200;43.236;27.986;2023-08-24T00:11:09;99944.63;;;23.31;89.92
10310;BME280;5200;43.236;27.986;2023-08-24T00:13:40;99976.69;;;23.44;90.10
10310;BME280;5200;43.236;27.986;2023-08-24T00:16:07;100000.41;;;23.66;89.60
10310;BME280;5200;43.236;27.986;2023-08-24T00:18:35;99961.78;;;23.48;88.47
10310;BME280;5200;43.236;27.986;2023-08-24T00:21:02;99967.44;;;23.58;87.29
10310;BME280;5200;43.236;27.986;2023-08-24T00:23:30;99984.28;;;23.66;87.73
10310;BME280;5200;43.236;27.986;2023-08-24T00:25:57;99964.25;;;23.50;87.30
10310;BME280;5200;43.236;27.986;2023-08-24T00:28:25;99975.66;;;23.63;87.17
10310;BME280;5200;43.236;27.986;2023-08-24T00:30:52;99959.91;;;23.67;85.51
10310;BME280;5200;43.236;27.986;2023-08-24T00:33:19;99998.06;;;23.94;84.87
10310;BME280;5200;43.236;27.986;2023-08-24T00:35:46;99999.34;;;23.92;84.93
10310;BME280;5200;43.236;27.986;2023-08-24T00:38:13;99991.09;;;23.87;85.02
10310;BME280;5200;43.236;27.986;2023-08-24T00:40:42;100004.59;;;23.98;84.65
10310;BME280;5200;43.236;27.986;2023-08-24T00:43:10;99981.41;;;23.86;84.56
10310;BME280;5200;43.236;27.986;2023-08-24T00:45:38;100000.50;;;23.96;84.44
10310;BME280;5200;43.236;27.986;2023-08-24T00:48:05;99962.13;;;23.70;84.68
10310;BME280;5200;43.236;27.986;2023-08-24T00:50:32;99976.13;;;23.79;85.00
10310;BME280;5200;43.236;27.986;2023-08-24T00:52:59;99997.31;;;23.87;85.10
10310;BME280;5200;43.236;27.986;2023-08-24T00:55:26;99993.19;;;23.84;84.93
10310;BME280;5200;43.236;27.986;2023-08-24T00:57:55;99955.53;;;23.54;85.36
10310;BME280;5200;43.236;27.986;2023-08-24T01:00:23;99991.25;;;23.73;85.50
10310;BME280;5200;43.236;27.986;2023-08-24T01:02:50;99991.31;;;23.67;85.76
10310;BME280;5200;43.236;27.986;2023-08-24T01:05:17;99967.88;;;23.55;85.92
10310;BME280;5200;43.236;27.986;2023-08-24T01:07:44;99939.03;;;23.32;86.15
10310;BME280;5200;43.236;27.986;2023-08-24T01:10:11;99992.81;;;23.62;86.13
10310;BME280;5200;43.236;27.986;2023-08-24T01:12:50;99965.88;;;23.51;86.37
10310;BME280;5200;43.236;27.986;2023-08-24T01:15:25;99990.72;;;23.64;86.92
10310;BME280;5200;43.236;27.986;2023-08-24T01:17:57;99943.88;;;23.42;87.57
10310;BME280;5200;43.236;27.986;2023-08-24T01:20:27;99980.88;;;23.58;88.69
10310;BME280;5200;43.236;27.986;2023-08-24T01:23:00;99989.38;;;23.55;89.32
10310;BME280;5200;43.236;27.986;2023-08-24T01:25:37;99985.34;;;23.46;90.17
10310;BME280;5200;43.236;27.986;2023-08-24T01:28:06;99952.50;;;23.26;90.53
10310;BME280;5200;43.236;27.986;2023-08-24T01:30:35;99956.44;;;23.23;91.56
10310;BME280;5200;43.236;27.986;2023-08-24T01:33:03;99985.91;;;23.30;92.03
10310;BME280;5200;43.236;27.986;2023-08-24T01:35:31;99962.94;;;23.15;92.89
10310;BME280;5200;43.236;27.986;2023-08-24T01:37:58;99976.97;;;23.17;93.92
10310;BME280;5200;43.236;27.986;2023-08-24T01:40:33;99968.31;;;23.15;93.98
10310;BME280;5200;43.236;27.986;2023-08-24T01:43:05;99953.56;;;23.25;93.40
10310;BME280;5200;43.236;27.986;2023-08-24T01:45:35;99941.81;;;23.00;94.07
10310;BME280;5200;43.236;27.986;2023-08-24T01:48:03;99949.16;;;23.12;95.01
10310;BME280;5200;43.236;27.986;2023-08-24T01:50:31;99956.69;;;23.21;95.87
10310;BME280;5200;43.236;27.986;2023-08-24T01:52:59;99940.72;;;23.08;96.80
10310;BME280;5200;43.236;27.986;2023-08-24T01:55:26;99949.38;;;23.10;97.99
10310;BME280;5200;43.236;27.986;2023-08-24T01:57:55;99960.84;;;23.17;98.87
10310;BME280;5200;43.236;27.986;2023-08-24T02:00:22;99946.91;;;23.09;99.71
10310;BME280;5200;43.236;27.986;2023-08-24T02:02:50;99911.59;;;22.87;99.63
10310;BME280;5200;43.236;27.986;2023-08-24T02:05:17;99935.19;;;23.03;99.69
10310;BME280;5200;43.236;27.986;2023-08-24T02:07:44;99947.66;;;23.16;99.43
10310;BME280;5200;43.236;27.986;2023-08-24T02:10:11;99951.47;;;23.27;100.00
10310;BME280;5200;43.236;27.986;2023-08-24T02:12:38;99927.75;;;23.05;100.00
10310;BME280;5200;43.236;27.986;2023-08-24T02:15:05;99938.25;;;23.07;100.00
10310;BME280;5200;43.236;27.986;2023-08-24T02:17:32;99959.03;;;23.11;100.00
10310;BME280;5200;43.236;27.986;2023-08-24T02:20:01;99965.91;;;23.07;100.00
10310;BME280;5200;43.236;27.986;2023-08-24T02:22:28;99960.97;;;23.04;100.00
10310;BME280;5200;43.236;27.986;2023-08-24T02:24:56;99950.25;;;22.97;100.00
10310;BME280;5200;43.236;27.986;2023-08-24T02:27:23;99910.47;;;22.69;100.00
10310;BME280;5200;43.236;27.986;2023-08-24T02:29:50;99923.22;;;22.74;100.00
10310;BME280;5200;43.236;27.986;2023-08-24T02:32:17;99964.56;;;22.91;100.00
10310;BME280;5200;43.236;27.986;2023-08-24T02:34:44;99946.34;;;22.75;100.00
10310;BME280;5200;43.236;27.986;2023-08-24T02:37:12;99972.38;;;22.93;100.00
10310;BME280;5200;43.236;27.986;2023-08-24T02:39:39;99966.03;;;22.87;100.00
10310;BME280;5200;43.236;27.986;2023-08-24T02:42:06;99958.81;;;22.88;100.00
10310;BME280;5200;43.236;27.986;2023-08-24T02:44:33;99913.44;;;22.61;100.00
10310;BME280;5200;43.236;27.986;2023-08-24T02:47:00;99960.41;;;22.95;100.00
10310;BME280;5200;43.236;27.986;2023-08-24T02:49:27;99965.38;;;22.98;100.00
10310;BME280;5200;43.236;27.986;2023-08-24T02:51:54;99972.31;;;23.06;100.00
10310;BME280;5200;43.236;27.986;2023-08-24T02:54:22;99933.75;;;22.75;100.00
10310;BME280;5200;43.236;27.986;2023-08-24T02:56:49;99910.00;;;22.54;100.00
10310;BME280;5200;43.236;27.986;2023-08-24T02:59:16;99950.16;;;22.86;100.00
10310;BME280;5200;43.236;27.986;2023-08-24T03:01:43;99956.56;;;22.85;100.00
10310;BME280;5200;43.236;27.986;2023-08-24T03:04:10;99932.28;;;22.79;100.00
10310;BME280;5200;43.236;27.986;2023-08-24T03:06:37;99970.91;;;22.97;100.00
10310;BME280;5200;43.236;27.986;2023-08-24T03:09:04;99966.19;;;22.92;100.00
10310;BME280;5200;43.236;27.986;2023-08-24T03:11:32;99963.34;;;22.87;100.00
10310;BME280;5200;43.236;27.986;2023-08-24T03:13:59;99959.66;;;22.88;100.00
10310;BME280;5200;43.236;27.986;2023-08-24T03:16:26;99929.09;;;22.64;100.00
10310;BME280;5200;43.236;27.986;2023-08-24T03:18:53;99930.91;;;22.70;100.00
10310;BME280;5200;43.236;27.986;2023-08-24T03:21:20;99905.25;;;22.56;100.00
10310;BME280;5200;43.236;27.986;2023-08-24T03:23:47;99975.03;;;22.99;100.00
10310;BME280;5200;43.236;27.986;2023-08-24T03:26:14;99958.31;;;22.97;100.00
10310;BME280;5200;43.236;27.986;2023-08-24T03:28:42;99942.56;;;22.83;100.00
10310;BME280;5200;43.236;27.986;2023-08-24T03:31:09;99972.63;;;23.16;100.00
10310;BME280;5200;43.236;27.986;2023-08-24T03:33:36;99977.25;;;23.28;100.00
10310;BME280;5200;43.236;27.986;2023-08-24T03:36:03;99970.81;;;23.35;100.00
10310;BME280;5200;43.236;27.986;2023-08-24T03:38:30;99974.59;;;23.46;100.00
10310;BME280;5200;43.236;27.986;2023-08-24T03:41:01;99968.50;;;23.57;100.00
10310;BME280;5200;43.236;27.986;2023-08-24T03:43:28;99978.34;;;23.82;100.00
10310;BME280;5200;43.236;27.986;2023-08-24T03:45:56;99980.59;;;24.03;100.00
10310;BME280;5200;43.236;27.986;2023-08-24T03:48:23;99964.66;;;24.20;100.00
10310;BME280;5200;43.236;27.986;2023-08-24T03:50:53;99984.19;;;24.58;100.00
10310;BME280;5200;43.236;27.986;2023-08-24T03:53:20;99988.56;;;24.94;100.00
10310;BME280;5200;43.236;27.986;2023-08-24T03:55:47;99974.56;;;25.27;100.00
10310;BME280;5200;43.236;27.986;2023-08-24T03:58:15;99941.56;;;25.32;100.00
10310;BME280;5200;43.236;27.986;2023-08-24T04:00:42;99981.53;;;25.87;100.00
10310;BME280;5200;43.236;27.986;2023-08-24T04:03:10;99974.19;;;26.11;100.00
10310;BME280;5200;43.236;27.986;2023-08-24T04:05:37;99988.44;;;26.41;100.00
10310;BME280;5200;43.236;27.986;2023-08-24T04:08:04;99966.44;;;26.61;100.00
10310;BME280;5200;43.236;27.986;2023-08-24T04:10:32;99956.88;;;26.70;100.00
10310;BME280;5200;43.236;27.986;2023-08-24T04:13:00;99945.50;;;26.85;100.00
10310;BME280;5200;43.236;27.986;2023-08-24T04:15:26;99977.06;;;27.18;100.00
10310;BME280;5200;43.236;27.986;2023-08-24T04:17:53;99981.06;;;27.32;100.00
10310;BME280;5200;43.236;27.986;2023-08-24T04:20:22;99967.53;;;27.49;100.00
10310;BME280;5200;43.236;27.986;2023-08-24T04:22:49;99948.19;;;27.57;100.00
10310;BME280;5200;43.236;27.986;2023-08-24T04:25:16;99966.72;;;27.93;100.00
10310;BME280;5200;43.236;27.986;2023-08-24T04:27:42;99965.69;;;28.21;100.00
10310;BME280;5200;43.236;27.986;2023-08-24T04:30:10;99946.34;;;28.34;100.00
10310;BME280;5200;43.236;27.986;2023-08-24T04:32:37;99965.91;;;28.74;100.00
10310;BME280;5200;43.236;27.986;2023-08-24T04:35:05;99983.53;;;29.08;100.00
10310;BME280;5200;43.236;27.986;2023-08-24T04:37:34;99961.41;;;29.22;99.52
10310;BME280;5200;43.236;27.986;2023-08-24T04:40:03;99964.03;;;29.64;97.52
10310;BME280;5200;43.236;27.986;2023-08-24T04:42:30;99966.59;;;29.86;94.21
10310;BME280;5200;43.236;27.986;2023-08-24T04:44:57;99950.91;;;30.04;91.46
10310;BME280;5200;43.236;27.986;2023-08-24T04:47:24;99976.53;;;30.44;87.43
10310;BME280;5200;43.236;27.986;2023-08-24T04:49:50;99971.91;;;30.65;83.88
10310;BME280;5200;43.236;27.986;2023-08-24T04:52:17;99977.06;;;30.76;85.08
10310;BME280;5200;43.236;27.986;2023-08-24T04:54:45;99973.00;;;30.94;84.29
10310;BME280;5200;43.236;27.986;2023-08-24T04:57:12;99977.03;;;31.17;83.70
10310;BME280;5200;43.236;27.986;2023-08-24T04:59:39;99975.94;;;31.29;81.36
10310;BME280;5200;43.236;27.986;2023-08-24T05:02:06;99974.88;;;30.99;81.00
10310;BME280;5200;43.236;27.986;2023-08-24T05:04:33;99942.88;;;30.86;81.30
10310;BME280;5200;43.236;27.986;2023-08-24T05:07:00;99973.75;;;31.21;81.45
10310;BME280;5200;43.236;27.986;2023-08-24T05:09:27;99981.63;;;31.43;80.46
10310;BME280;5200;43.236;27.986;2023-08-24T05:11:55;99982.88;;;31.76;78.17
10310;BME280;5200;43.236;27.986;2023-08-24T05:14:22;99982.53;;;31.88;77.11
10310;BME280;5200;43.236;27.986;2023-08-24T05:16:48;99973.50;;;32.03;75.14
10310;BME280;5200;43.236;27.986;2023-08-24T05:19:15;99976.69;;;32.15;72.71
10310;BME280;5200;43.236;27.986;2023-08-24T05:21:42;99984.50;;;32.32;71.99
10310;BME280;5200;43.236;27.986;2023-08-24T05:24:09;99977.84;;;32.43;71.03
10310;BME280;5200;43.236;27.986;2023-08-24T05:26:35;99975.53;;;32.26;71.40
10310;BME280;5200;43.236;27.986;2023-08-24T05:29:04;99980.88;;;32.41;71.53
10310;BME280;5200;43.236;27.986;2023-08-24T05:31:30;99975.97;;;32.38;67.72
10310;BME280;5200;43.236;27.986;2023-08-24T05:33:57;99981.81;;;32.21;68.33
10310;BME280;5200;43.236;27.986;2023-08-24T05:36:24;99982.00;;;32.35;69.82
10310;BME280;5200;43.236;27.986;2023-08-24T05:38:51;99987.41;;;32.40;70.10
10310;BME280;5200;43.236;27.986;2023-08-24T05:41:21;99983.81;;;32.50;69.99
10310;BME280;5200;43.236;27.986;2023-08-24T05:43:48;99982.94;;;32.60;69.55
10310;BME280;5200;43.236;27.986;2023-08-24T05:46:18;99989.16;;;32.66;69.25
10310;BME280;5200;43.236;27.986;2023-08-24T05:48:44;99992.94;;;32.70;71.08
10310;BME280;5200;43.236;27.986;2023-08-24T05:51:11;99990.94;;;32.80;70.33
10310;BME280;5200;43.236;27.986;2023-08-24T05:53:38;99992.41;;;32.97;71.38
10310;BME280;5200;43.236;27.986;2023-08-24T05:56:08;99998.50;;;33.18;71.12
10310;BME280;5200;43.236;27.986;2023-08-24T05:58:46;100001.53;;;33.16;70.48
10310;BME280;5200;43.236;27.986;2023-08-24T06:01:12;99988.00;;;33.06;71.24
10310;BME280;5200;43.236;27.986;2023-08-24T06:03:41;99995.84;;;33.13;73.63
10310;BME280;5200;43.236;27.986;2023-08-24T06:06:07;100002.75;;;33.00;74.62
10310;BME280;5200;43.236;27.986;2023-08-24T06:08:35;99995.63;;;32.75;76.04
10310;BME280;5200;43.236;27.986;2023-08-24T06:11:02;100007.78;;;32.53;78.15
10310;BME280;5200;43.236;27.986;2023-08-24T06:13:29;100009.88;;;32.17;81.59
10310;BME280;5200;43.236;27.986;2023-08-24T06:15:55;100009.44;;;31.94;82.34
10310;BME280;5200;43.236;27.986;2023-08-24T06:18:25;99997.44;;;32.00;82.31
10310;BME280;5200;43.236;27.986;2023-08-24T06:20:53;99995.84;;;31.99;82.50
10310;BME280;5200;43.236;27.986;2023-08-24T06:23:20;100010.50;;;31.98;81.05
10310;BME280;5200;43.236;27.986;2023-08-24T06:25:47;100010.38;;;32.24;78.31
10310;BME280;5200;43.236;27.986;2023-08-24T06:28:14;100006.44;;;32.51;73.37
10310;BME280;5200;43.236;27.986;2023-08-24T06:30:42;100000.47;;;32.43;74.42
10310;BME280;5200;43.236;27.986;2023-08-24T06:33:10;100017.34;;;32.40;73.88
10310;BME280;5200;43.236;27.986;2023-08-24T06:35:37;100002.22;;;32.24;74.22
10310;BME280;5200;43.236;27.986;2023-08-24T06:38:05;100016.22;;;32.47;74.13
10310;BME280;5200;43.236;27.986;2023-08-24T06:40:32;100005.78;;;32.64;73.39
10310;BME280;5200;43.236;27.986;2023-08-24T06:43:00;100005.13;;;32.77;71.57
10310;BME280;5200;43.236;27.986;2023-08-24T06:45:27;100007.00;;;32.42;71.05
10310;BME280;5200;43.236;27.986;2023-08-24T06:47:54;100018.84;;;32.67;70.87
10310;BME280;5200;43.236;27.986;2023-08-24T06:50:21;100013.94;;;32.69;72.99
10310;BME280;5200;43.236;27.986;2023-08-24T06:52:48;100014.31;;;32.87;70.95
10310;BME280;5200;43.236;27.986;2023-08-24T06:55:16;100022.34;;;33.02;73.88
10310;BME280;5200;43.236;27.986;2023-08-24T06:57:48;100020.34;;;32.83;72.39
10310;BME280;5200;43.236;27.986;2023-08-24T07:00:18;100029.94;;;33.10;71.61
10310;BME280;5200;43.236;27.986;2023-08-24T07:02:46;100032.03;;;33.18;72.31
10310;BME280;5200;43.236;27.986;2023-08-24T07:05:13;100031.69;;;33.25;71.95
10310;BME280;5200;43.236;27.986;2023-08-24T07:07:44;100032.16;;;33.32;72.56
10310;BME280;5200;43.236;27.986;2023-08-24T07:10:11;100028.16;;;33.24;73.35
10310;BME280;5200;43.236;27.986;2023-08-24T07:12:39;100035.97;;;33.02;74.72
10310;BME280;5200;43.236;27.986;2023-08-24T07:15:07;100035.72;;;32.69;76.79
10310;BME280;5200;43.236;27.986;2023-08-24T07:17:34;100039.81;;;32.22;80.83
10310;BME280;5200;43.236;27.986;2023-08-24T07:20:01;100054.59;;;31.95;82.74
10310;BME280;5200;43.236;27.986;2023-08-24T07:22:30;100044.53;;;31.91;84.75
10310;BME280;5200;43.236;27.986;2023-08-24T07:24:57;100055.72;;;31.89;84.97
10310;BME280;5200;43.236;27.986;2023-08-24T07:27:24;100054.03;;;32.09;84.42
10310;BME280;5200;43.236;27.986;2023-08-24T07:29:53;100056.59;;;32.34;82.53
10310;BME280;5200;43.236;27.986;2023-08-24T07:32:19;100058.69;;;32.48;82.79
10310;BME280;5200;43.236;27.986;2023-08-24T07:34:47;100056.25;;;32.51;83.71
10310;BME280;5200;43.236;27.986;2023-08-24T07:37:14;100061.41;;;32.48;83.53
10310;BME280;5200;43.236;27.986;2023-08-24T07:39:41;100051.47;;;32.28;85.89
10310;BME280;5200;43.236;27.986;2023-08-24T07:42:08;100065.59;;;32.35;85.07
10310;BME280;5200;43.236;27.986;2023-08-24T07:44:35;100065.34;;;32.26;85.73
10310;BME280;5200;43.236;27.986;2023-08-24T07:47:04;100054.78;;;32.14;87.25
10310;BME280;5200;43.236;27.986;2023-08-24T07:49:31;100062.94;;;32.25;86.09
10310;BME280;5200;43.236;27.986;2023-08-24T07:51:57;100057.22;;;32.21;85.37
10310;BME280;5200;43.236;27.986;2023-08-24T07:54:24;100054.25;;;32.17;85.37
10310;BME280;5200;43.236;27.986;2023-08-24T07:56:51;100057.28;;;32.11;84.69
10310;BME280;5200;43.236;27.986;2023-08-24T07:59:18;100054.09;;;31.83;86.96
10310;BME280;5200;43.236;27.986;2023-08-24T08:01:45;100059.25;;;31.85;89.44
10310;BME280;5200;43.236;27.986;2023-08-24T08:04:13;100056.22;;;31.91;87.85
10310;BME280;5200;43.236;27.986;2023-08-24T08:06:39;100053.50;;;31.91;89.43
10310;BME280;5200;43.236;27.986;2023-08-24T08:09:06;100054.88;;;31.94;90.45
10310;BME280;5200;43.236;27.986;2023-08-24T08:11:33;100060.06;;;31.90;91.46
10310;BME280;5200;43.236;27.986;2023-08-24T08:14:00;100066.66;;;31.69;92.38
10310;BME280;5200;43.236;27.986;2023-08-24T08:16:27;100066.13;;;31.51;92.84
10310;BME280;5200;43.236;27.986;2023-08-24T08:18:54;100058.28;;;31.45;94.36
10310;BME280;5200;43.236;27.986;2023-08-24T08:21:22;100062.88;;;31.59;93.88
10310;BME280;5200;43.236;27.986;2023-08-24T08:23:49;100053.53;;;31.86;93.05
10310;BME280;5200;43.236;27.986;2023-08-24T08:26:16;100064.38;;;32.01;91.81
10310;BME280;5200;43.236;27.986;2023-08-24T08:28:43;100053.41;;;32.22;91.58
10310;BME280;5200;43.236;27.986;2023-08-24T08:31:09;100051.16;;;32.34;88.87
10310;BME280;5200;43.236;27.986;2023-08-24T08:33:36;100046.66;;;32.59;87.21
10310;BME280;5200;43.236;27.986;2023-08-24T08:36:04;100056.44;;;32.65;85.91
10310;BME280;5200;43.236;27.986;2023-08-24T08:38:32;100049.09;;;32.16;88.32
10310;BME280;5200;43.236;27.986;2023-08-24T08:41:03;100052.16;;;31.94;89.34
10310;BME280;5200;43.236;27.986;2023-08-24T08:43:30;100044.69;;;31.45;91.37
10310;BME280;5200;43.236;27.986;2023-08-24T08:45:59;100052.00;;;31.54;92.68
10310;BME280;5200;43.236;27.986;2023-08-24T08:48:27;100051.38;;;31.83;89.23
10310;BME280;5200;43.236;27.986;2023-08-24T08:50:54;100051.41;;;31.73;88.19
10310;BME280;5200;43.236;27.986;2023-08-24T08:53:22;100055.50;;;31.65;90.22
10310;BME280;5200;43.236;27.986;2023-08-24T08:56:01;100048.34;;;31.90;89.59
10310;BME280;5200;43.236;27.986;2023-08-24T08:58:31;100046.84;;;32.28;86.83
10310;BME280;5200;43.236;27.986;2023-08-24T09:00:58;100045.25;;;32.17;86.45
10310;BME280;5200;43.236;27.986;2023-08-24T09:03:29;100052.91;;;32.10;84.91
10310;BME280;5200;43.236;27.986;2023-08-24T09:05:57;100044.72;;;32.15;85.24
10310;BME280;5200;43.236;27.986;2023-08-24T09:08:25;100061.03;;;32.20;85.30
10310;BME280;5200;43.236;27.986;2023-08-24T09:10:51;100052.94;;;32.05;85.94
10310;BME280;5200;43.236;27.986;2023-08-24T09:13:20;100057.69;;;31.63;88.42
10310;BME280;5200;43.236;27.986;2023-08-24T09:15:51;100047.13;;;31.56;90.45
10310;BME280;5200;43.236;27.986;2023-08-24T09:18:17;100061.09;;;32.05;88.57
10310;BME280;5200;43.236;27.986;2023-08-24T09:20:45;100046.91;;;32.18;88.13
10310;BME280;5200;43.236;27.986;2023-08-24T09:23:17;100056.50;;;32.00;89.05
10310;BME280;5200;43.236;27.986;2023-08-24T09:25:45;100042.31;;;32.03;88.71
10310;BME280;5200;43.236;27.986;2023-08-24T09:28:13;100058.44;;;31.84;86.48
10310;BME280;5200;43.236;27.986;2023-08-24T09:30:44;100059.06;;;31.30;92.52
10310;BME280;5200;43.236;27.986;2023-08-24T09:33:13;100055.28;;;31.15;94.41
10310;BME280;5200;43.236;27.986;2023-08-24T09:35:39;100060.72;;;31.46;92.60
10310;BME280;5200;43.236;27.986;2023-08-24T09:38:16;100044.28;;;31.87;88.50
10310;BME280;5200;43.236;27.986;2023-08-24T09:40:45;100057.16;;;32.36;85.71
10310;BME280;5200;43.236;27.986;2023-08-24T09:43:13;100047.28;;;32.46;85.51
10310;BME280;5200;43.236;27.986;2023-08-24T09:45:50;100057.31;;;32.00;88.58
10310;BME280;5200;43.236;27.986;2023-08-24T09:48:17;100050.78;;;31.91;89.68
10310;BME280;5200;43.236;27.986;2023-08-24T09:50:45;100063.25;;;32.08;89.88
10310;BME280;5200;43.236;27.986;2023-08-24T09:53:17;100047.44;;;32.15;88.65
10310;BME280;5200;43.236;27.986;2023-08-24T09:55:52;100059.75;;;32.02;89.26
10310;BME280;5200;43.236;27.986;2023-08-24T09:58:21;100039.38;;;31.84;90.43
10310;BME280;5200;43.236;27.986;2023-08-24T10:00:50;100055.19;;;31.82;91.11
10310;BME280;5200;43.236;27.986;2023-08-24T10:03:19;100049.19;;;31.85;90.99
10310;BME280;5200;43.236;27.986;2023-08-24T10:05:51;100063.56;;;32.06;88.61
10310;BME280;5200;43.236;27.986;2023-08-24T10:08:21;100050.78;;;31.91;88.66
10310;BME280;5200;43.236;27.986;2023-08-24T10:10:53;100052.69;;;32.01;86.79
10310;BME280;5200;43.236;27.986;2023-08-24T10:13:29;100054.53;;;32.16;85.98
10310;BME280;5200;43.236;27.986;2023-08-24T10:15:59;100053.44;;;32.12;86.27
10310;BME280;5200;43.236;27.986;2023-08-24T10:18:29;100049.97;;;31.96;83.99
10310;BME280;5200;43.236;27.986;2023-08-24T10:20:57;100047.69;;;31.43;80.60
10310;BME280;5200;43.236;27.986;2023-08-24T10:23:25;100047.97;;;31.26;76.43
10310;BME280;5200;43.236;27.986;2023-08-24T10:25:55;100051.75;;;30.79;70.31
10310;BME280;5200;43.236;27.986;2023-08-24T10:28:24;100059.00;;;30.48;73.25
10310;BME280;5200;43.236;27.986;2023-08-24T10:30:51;100048.19;;;30.58;73.89
10310;BME280;5200;43.236;27.986;2023-08-24T10:33:20;100021.03;;;30.53;82.21
10310;BME280;5200;43.236;27.986;2023-08-24T10:35:48;100020.50;;;30.61;81.48
10310;BME280;5200;43.236;27.986;2023-08-24T10:38:26;100041.16;;;30.67;80.71
10310;BME280;5200;43.236;27.986;2023-08-24T10:40:54;100004.72;;;30.43;82.99
10310;BME280;5200;43.236;27.986;2023-08-24T10:43:23;99975.63;;;30.23;84.47
10310;BME280;5200;43.236;27.986;2023-08-24T10:45:58;99990.34;;;30.52;86.75
10310;BME280;5200;43.236;27.986;2023-08-24T10:48:29;99978.41;;;30.53;86.94
10310;BME280;5200;43.236;27.986;2023-08-24T10:51:19;100040.91;;;30.94;86.06
10310;BME280;5200;43.236;27.986;2023-08-24T10:53:52;100042.81;;;31.09;84.64
10310;BME280;5200;43.236;27.986;2023-08-24T10:56:20;100023.78;;;30.79;90.44
10310;BME280;5200;43.236;27.986;2023-08-24T10:58:48;100036.84;;;31.07;87.60
10310;BME280;5200;43.236;27.986;2023-08-24T11:01:38;100028.13;;;31.10;89.56
10310;BME280;5200;43.236;27.986;2023-08-24T11:04:12;99983.03;;;30.58;80.15
10310;BME280;5200;43.236;27.986;2023-08-24T11:06:59;100008.53;;;30.52;85.76
10310;BME280;5200;43.236;27.986;2023-08-24T11:09:44;100010.19;;;30.63;87.75
10310;BME280;5200;43.236;27.986;2023-08-24T11:12:12;99994.69;;;30.69;84.86
10310;BME280;5200;43.236;27.986;2023-08-24T11:14:48;99990.66;;;30.92;84.41
10310;BME280;5200;43.236;27.986;2023-08-24T11:17:21;99988.50;;;30.84;84.25
10310;BME280;5200;43.236;27.986;2023-08-24T11:19:51;99998.00;;;30.86;82.35
10310;BME280;5200;43.236;27.986;2023-08-24T11:22:18;99941.22;;;30.49;82.70
10310;BME280;5200;43.236;27.986;2023-08-24T11:24:47;99965.09;;;30.47;86.18
10310;BME280;5200;43.236;27.986;2023-08-24T11:27:14;99967.28;;;30.40;86.05
10310;BME280;5200;43.236;27.986;2023-08-24T11:29:42;99976.50;;;30.49;89.34
10310;BME280;5200;43.236;27.986;2023-08-24T11:32:10;99975.97;;;30.52;88.64
10310;BME280;5200;43.236;27.986;2023-08-24T11:34:37;99974.34;;;30.46;88.71
10310;BME280;5200;43.236;27.986;2023-08-24T11:37:05;99971.09;;;30.49;89.43
10310;BME280;5200;43.236;27.986;2023-08-24T11:39:32;99979.78;;;30.76;87.77
10310;BME280;5200;43.236;27.986;2023-08-24T11:42:00;99970.53;;;30.57;89.19
10310;BME280;5200;43.236;27.986;2023-08-24T11:44:28;99969.44;;;30.32;88.19
10310;BME280;5200;43.236;27.986;2023-08-24T11:46:56;99985.72;;;30.43;88.81
10310;BME280;5200;43.236;27.986;2023-08-24T11:49:25;99966.16;;;30.25;87.97
10310;BME280;5200;43.236;27.986;2023-08-24T11:51:52;99965.59;;;30.18;87.94
10310;BME280;5200;43.236;27.986;2023-08-24T11:54:20;99958.19;;;29.88;90.96
10310;BME280;5200;43.236;27.986;2023-08-24T11:56:48;99956.28;;;29.83;92.04
10310;BME280;5200;43.236;27.986;2023-08-24T11:59:16;99952.47;;;29.84;95.12
10310;BME280;5200;43.236;27.986;2023-08-24T12:01:43;99923.44;;;29.69;95.82
10310;BME280;5200;43.236;27.986;2023-08-24T12:04:12;99945.13;;;29.69;98.69
10310;BME280;5200;43.236;27.986;2023-08-24T12:06:39;99934.47;;;29.58;99.92
10310;BME280;5200;43.236;27.986;2023-08-24T12:09:06;99940.88;;;29.36;100.00
10310;BME280;5200;43.236;27.986;2023-08-24T12:11:38;99934.44;;;29.47;100.00
10310;BME280;5200;43.236;27.986;2023-08-24T12:14:15;99933.34;;;29.48;100.00
10310;BME280;5200;43.236;27.986;2023-08-24T12:16:43;99947.22;;;29.62;100.00
10310;BME280;5200;43.236;27.986;2023-08-24T12:19:10;99945.31;;;29.63;100.00
10310;BME280;5200;43.236;27.986;2023-08-24T12:21:43;99866.56;;;29.17;100.00
10310;BME280;5200;43.236;27.986;2023-08-24T12:24:13;99938.56;;;29.65;99.21
10310;BME280;5200;43.236;27.986;2023-08-24T12:26:43;99926.94;;;29.70;99.43
10310;BME280;5200;43.236;27.986;2023-08-24T12:29:10;99945.16;;;29.80;100.00
10310;BME280;5200;43.236;27.986;2023-08-24T12:31:42;99914.94;;;29.61;100.00
10310;BME280;5200;43.236;27.986;2023-08-24T12:34:15;99882.38;;;29.40;100.00
10310;BME280;5200;43.236;27.986;2023-08-24T12:36:45;99911.22;;;29.72;100.00
10310;BME280;5200;43.236;27.986;2023-08-24T12:39:19;99880.50;;;29.56;100.00
10310;BME280;5200;43.236;27.986;2023-08-24T12:41:53;99875.88;;;29.46;100.00
10310;BME280;5200;43.236;27.986;2023-08-24T12:44:21;99924.28;;;29.75;100.00
10310;BME280;5200;43.236;27.986;2023-08-24T12:46:48;99876.97;;;29.40;100.00
10310;BME280;5200;43.236;27.986;2023-08-24T12:49:15;99934.56;;;29.73;100.00
10310;BME280;5200;43.236;27.986;2023-08-24T12:51:42;99919.94;;;29.84;100.00
10310;BME280;5200;43.236;27.986;2023-08-24T12:54:09;99926.50;;;29.99;100.00
10310;BME280;5200;43.236;27.986;2023-08-24T12:56:38;99865.34;;;29.60;100.00
10310;BME280;5200;43.236;27.986;2023-08-24T12:59:07;99850.97;;;29.55;100.00